Time;durP1;ratioP1;P1;durP2;ratioP2;P2;SDS_P1;SDS_P2;PMS_P1;PMS_P2;Temp;Humidity;BMP_temperature;BMP_pressure;BME280_temperature;BME280_humidity;BME280_pressure;Samples;Min_cycle;Max_cycle;Signal;HPM_P1;HPM_P2
2023/05/25 00:00:00;;;;;;;11.03;9.93;;;12.90;99.90;;;;;;5041650;28;20464;-77
2023/05/25 00:02:27;;;;;;;12.10;10.77;;;12.80;99.90;;;;;;5039523;28;20449;-78
2023/05/25 00:04:57;;;;;;;12.83;11.23;;;12.80;99.90;;;;;;5032246;28;20469;-76
2023/05/25 00:07:24;;;;;;;10.80;9.80;;;12.90;99.90;;;;;;5042557;28;20931;-78
2023/05/25 00:09:51;;;;;;;13.30;10.27;;;12.80;99.90;;;;;;5045232;28;20526;-76
2023/05/25 00:12:18;;;;;;;12.13;10.90;;;12.80;99.90;;;;;;5037482;28;20449;-76
2023/05/25 00:14:45;;;;;;;11.80;10.27;;;12.70;99.90;;;;;;5036705;28;20461;-80
2023/05/25 00:17:12;;;;;;;11.50;10.33;;;12.90;99.90;;;;;;5032820;28;20449;-77
2023/05/25 00:19:41;;;;;;;13.77;11.90;;;12.90;99.90;;;;;;5034632;28;20477;-77
2023/05/25 00:22:09;;;;;;;12.40;11.10;;;12.80;99.90;;;;;;5044928;28;20457;-78
2023/05/25 00:24:36;;;;;;;11.43;10.03;;;12.80;99.90;;;;;;5034896;28;20500;-79
2023/05/25 00:27:05;;;;;;;12.40;10.70;;;12.70;99.90;;;;;;5041225;28;20944;-76
2023/05/25 00:29:32;;;;;;;11.33;10.27;;;12.60;99.90;;;;;;5033110;28;20963;-77
2023/05/25 00:31:59;;;;;;;12.77;10.70;;;12.50;99.90;;;;;;5033146;28;21157;-76
2023/05/25 00:34:26;;;;;;;11.33;10.23;;;12.50;99.90;;;;;;5041342;28;20477;-76
2023/05/25 00:36:54;;;;;;;12.37;10.87;;;12.40;99.90;;;;;;5038525;28;20567;-76
2023/05/25 00:39:22;;;;;;;11.27;10.10;;;12.20;99.90;;;;;;5045000;28;20441;-76
2023/05/25 00:41:50;;;;;;;11.00;9.97;;;12.10;99.90;;;;;;5044738;28;20527;-77
2023/05/25 00:44:20;;;;;;;11.40;10.30;;;12.00;99.90;;;;;;5045597;28;20488;-77
2023/05/25 00:46:49;;;;;;;11.53;9.47;;;11.90;99.90;;;;;;5047624;28;20451;-77
2023/05/25 00:49:18;;;;;;;11.17;9.90;;;11.80;99.90;;;;;;5045257;28;20476;-77
2023/05/25 00:51:46;;;;;;;11.23;10.23;;;11.70;99.90;;;;;;5036641;28;20465;-76
2023/05/25 00:54:14;;;;;;;15.10;11.40;;;11.80;99.90;;;;;;5037471;28;20485;-77
2023/05/25 00:56:47;;;;;;;12.13;10.93;;;11.70;99.90;;;;;;5043009;28;20460;-79
2023/05/25 00:59:20;;;;;;;10.67;9.57;;;11.70;99.90;;;;;;5035998;28;20522;-78
2023/05/25 01:01:48;;;;;;;13.00;11.27;;;11.70;99.90;;;;;;5044590;28;20997;-77
2023/05/25 01:04:17;;;;;;;11.33;9.57;;;11.70;99.90;;;;;;5041883;28;20449;-77
2023/05/25 01:06:47;;;;;;;14.50;12.97;;;11.80;99.90;;;;;;5045981;28;20507;-76
2023/05/25 01:09:19;;;;;;;13.33;10.50;;;11.90;99.90;;;;;;5036725;28;20595;-79
2023/05/25 01:11:51;;;;;;;11.20;10.07;;;11.90;99.90;;;;;;5044747;28;20445;-78
2023/05/25 01:14:20;;;;;;;15.87;12.90;;;12.00;99.90;;;;;;5041959;28;20547;-77
2023/05/25 01:16:48;;;;;;;13.50;12.10;;;12.10;99.90;;;;;;5032236;28;20465;-76
2023/05/25 01:19:15;;;;;;;15.33;12.53;;;12.10;99.90;;;;;;5043514;28;20518;-77
2023/05/25 01:21:48;;;;;;;14.07;12.67;;;12.10;99.90;;;;;;5041756;28;20456;-77
2023/05/25 01:24:22;;;;;;;12.10;10.83;;;12.20;99.90;;;;;;5041920;28;20449;-77
2023/05/25 01:26:55;;;;;;;12.40;11.30;;;12.30;99.90;;;;;;5040750;28;20535;-77
2023/05/25 01:29:24;;;;;;;13.83;11.17;;;12.40;99.90;;;;;;5044266;28;20489;-77
2023/05/25 01:31:53;;;;;;;12.27;11.07;;;12.40;99.90;;;;;;5046357;28;21169;-75
2023/05/25 01:34:21;;;;;;;12.67;11.10;;;12.40;99.90;;;;;;5045115;28;20481;-76
2023/05/25 01:36:49;;;;;;;12.00;10.63;;;12.40;99.90;;;;;;5043563;28;20526;-79
2023/05/25 01:39:17;;;;;;;12.47;11.13;;;12.40;99.90;;;;;;5041437;28;20481;-77
2023/05/25 01:41:44;;;;;;;12.23;10.90;;;12.30;99.90;;;;;;5035699;28;20514;-76
2023/05/25 01:44:11;;;;;;;12.40;10.93;;;12.40;99.90;;;;;;5042304;28;20477;-78
2023/05/25 01:46:40;;;;;;;15.50;11.20;;;12.50;99.90;;;;;;5041537;28;21157;-77
2023/05/25 01:49:16;;;;;;;12.63;11.40;;;12.50;99.90;;;;;;5033906;28;20497;-76
2023/05/25 01:51:54;;;;;;;14.40;13.00;;;12.50;99.90;;;;;;5043738;28;20499;-77
2023/05/25 01:54:26;;;;;;;11.47;10.47;;;12.50;99.90;;;;;;5031135;28;20446;-77
2023/05/25 01:56:56;;;;;;;16.40;13.67;;;12.50;99.90;;;;;;5034972;28;20940;-78
2023/05/25 01:59:25;;;;;;;15.00;12.27;;;12.30;99.90;;;;;;5042698;28;20515;-78
2023/05/25 02:01:54;;;;;;;13.80;12.37;;;12.10;99.90;;;;;;5046279;28;20469;-77
2023/05/25 02:04:22;;;;;;;13.27;11.87;;;12.20;99.90;;;;;;5047961;28;20441;-76
2023/05/25 02:06:49;;;;;;;15.20;12.07;;;12.10;99.90;;;;;;5047022;28;20442;-75
2023/05/25 02:09:17;;;;;;;14.53;12.57;;;12.10;99.90;;;;;;5046085;28;20545;-78
2023/05/25 02:11:44;;;;;;;14.83;13.23;;;12.20;99.90;;;;;;5040637;28;20504;-75
2023/05/25 02:14:11;;;;;;;12.63;11.57;;;12.20;99.90;;;;;;5036605;28;20940;-76
2023/05/25 02:16:38;;;;;;;13.53;12.13;;;12.10;99.90;;;;;;5046247;28;20441;-77
2023/05/25 02:19:05;;;;;;;13.67;12.37;;;12.00;99.90;;;;;;5047033;28;20469;-77
2023/05/25 02:21:32;;;;;;;14.93;13.37;;;11.90;99.90;;;;;;5042472;28;20523;-75
2023/05/25 02:24:00;;;;;;;14.80;13.10;;;11.90;99.90;;;;;;5032049;28;20865;-76
2023/05/25 02:26:29;;;;;;;14.80;12.23;;;11.90;99.90;;;;;;5041952;28;20465;-79
2023/05/25 02:28:56;;;;;;;13.20;11.87;;;11.80;99.90;;;;;;5043347;28;20484;-76
2023/05/25 02:31:23;;;;;;;16.70;13.10;;;11.80;99.90;;;;;;5038975;28;21162;-77
2023/05/25 02:33:50;;;;;;;15.87;13.00;;;11.90;99.90;;;;;;5039268;28;20503;-77
2023/05/25 02:36:17;;;;;;;13.33;11.90;;;11.90;99.90;;;;;;5038803;28;20470;-76
2023/05/25 02:38:44;;;;;;;10.23;9.20;;;12.00;99.90;;;;;;5041128;28;20840;-76
2023/05/25 02:41:11;;;;;;;12.80;10.90;;;12.00;99.90;;;;;;5039803;28;20599;-76
2023/05/25 02:43:39;;;;;;;11.97;9.97;;;12.00;99.90;;;;;;5036243;28;20449;-79
2023/05/25 02:46:06;;;;;;;12.37;11.10;;;12.00;99.90;;;;;;5039088;28;21019;-76
2023/05/25 02:48:33;;;;;;;14.73;9.63;;;12.00;99.90;;;;;;5044252;28;21069;-76
2023/05/25 02:51:01;;;;;;;10.30;8.90;;;12.00;99.90;;;;;;5031735;28;20512;-76
2023/05/25 02:53:28;;;;;;;12.50;11.30;;;11.90;99.90;;;;;;5037596;28;20458;-77
2023/05/25 02:55:56;;;;;;;15.27;9.10;;;11.90;99.90;;;;;;5030851;28;20445;-76
2023/05/25 02:58:23;;;;;;;13.60;9.87;;;11.80;99.90;;;;;;5044845;28;20951;-78
2023/05/25 03:00:53;;;;;;;9.50;8.70;;;11.80;99.90;;;;;;5041343;28;20497;-76
2023/05/25 03:03:20;;;;;;;9.33;8.23;;;11.80;99.90;;;;;;5035523;28;20541;-76
2023/05/25 03:05:48;;;;;;;10.03;7.23;;;11.80;99.90;;;;;;5040482;28;20449;-76
2023/05/25 03:08:15;;;;;;;10.53;7.90;;;11.80;99.90;;;;;;5035857;28;20539;-78
2023/05/25 03:10:42;;;;;;;7.67;6.60;;;11.70;99.90;;;;;;5042038;28;20519;-77
2023/05/25 03:13:09;;;;;;;10.20;8.60;;;11.70;99.90;;;;;;5040593;28;20545;-76
2023/05/25 03:15:36;;;;;;;9.90;8.93;;;11.80;99.90;;;;;;5045445;28;20489;-78
2023/05/25 03:18:05;;;;;;;8.80;7.87;;;11.80;99.90;;;;;;5032677;28;20771;-76
2023/05/25 03:20:33;;;;;;;9.90;8.20;;;11.80;99.90;;;;;;5040073;28;20473;-78
2023/05/25 03:23:00;;;;;;;11.33;9.67;;;11.80;99.90;;;;;;5040036;28;20485;-76
2023/05/25 03:25:27;;;;;;;11.13;8.30;;;11.90;99.90;;;;;;5036136;28;20446;-76
2023/05/25 03:27:54;;;;;;;9.10;8.23;;;12.00;99.90;;;;;;5045719;28;20506;-75
2023/05/25 03:30:22;;;;;;;10.30;8.43;;;12.00;99.90;;;;;;5038286;28;20481;-76
2023/05/25 03:32:49;;;;;;;8.97;8.07;;;12.00;99.90;;;;;;5041101;28;20457;-77
2023/05/25 03:35:17;;;;;;;10.37;8.80;;;12.00;99.90;;;;;;5041116;28;20940;-76
2023/05/25 03:37:44;;;;;;;16.83;8.37;;;12.10;99.90;;;;;;5042054;28;20506;-76
2023/05/25 03:40:12;;;;;;;13.80;8.50;;;12.10;99.90;;;;;;5044110;28;20551;-76
2023/05/25 03:42:39;;;;;;;8.90;7.07;;;12.20;99.90;;;;;;5040559;28;20445;-76
2023/05/25 03:45:07;;;;;;;12.33;6.87;;;12.20;99.90;;;;;;5044960;28;20473;-76
2023/05/25 03:47:34;;;;;;;9.53;8.03;;;12.30;99.90;;;;;;5043718;28;20932;-76
2023/05/25 03:50:02;;;;;;;10.63;7.47;;;12.30;99.90;;;;;;5044983;28;20485;-75
2023/05/25 03:52:30;;;;;;;10.90;7.93;;;12.30;99.90;;;;;;5034666;28;20438;-78
2023/05/25 03:54:57;;;;;;;13.73;8.13;;;12.30;99.90;;;;;;5041811;28;20458;-77
2023/05/25 03:57:24;;;;;;;10.13;8.10;;;12.30;99.90;;;;;;5042792;28;21103;-77
2023/05/25 03:59:51;;;;;;;8.20;6.40;;;12.30;99.90;;;;;;5036861;28;21482;-76
2023/05/25 04:02:18;;;;;;;11.50;6.93;;;12.30;99.90;;;;;;5039690;28;20441;-76
2023/05/25 04:04:45;;;;;;;10.73;8.27;;;12.30;99.90;;;;;;5038200;28;20442;-76
2023/05/25 04:07:11;;;;;;;6.90;6.20;;;12.30;99.90;;;;;;5037389;28;20457;-77
2023/05/25 04:09:40;;;;;;;9.73;6.50;;;12.30;99.90;;;;;;5032660;28;20551;-76
2023/05/25 04:12:07;;;;;;;11.77;6.90;;;12.40;99.90;;;;;;5039440;28;20527;-76
2023/05/25 04:14:34;;;;;;;8.00;7.20;;;12.30;99.90;;;;;;5038019;28;20449;-78
2023/05/25 04:17:01;;;;;;;9.03;7.03;;;12.40;99.90;;;;;;5035646;28;20547;-75
2023/05/25 04:19:28;;;;;;;7.07;6.37;;;12.40;99.90;;;;;;5039490;28;21286;-77
2023/05/25 04:21:55;;;;;;;8.27;6.47;;;12.40;99.90;;;;;;5040069;28;21005;-78
2023/05/25 04:24:22;;;;;;;7.40;6.53;;;12.40;99.90;;;;;;5042535;28;20441;-78
2023/05/25 04:26:50;;;;;;;11.37;7.40;;;12.40;99.90;;;;;;5040810;28;20457;-78
2023/05/25 04:29:17;;;;;;;11.50;6.53;;;12.50;99.90;;;;;;5026383;28;20535;-77
2023/05/25 04:31:46;;;;;;;17.60;7.80;;;12.50;99.90;;;;;;5041180;28;20479;-77
2023/05/25 04:34:13;;;;;;;8.63;7.40;;;12.60;99.90;;;;;;5039324;28;20473;-76
2023/05/25 04:36:42;;;;;;;14.13;8.20;;;12.70;99.90;;;;;;5041472;28;20469;-76
2023/05/25 04:39:09;;;;;;;8.63;7.10;;;12.70;99.90;;;;;;5042710;28;20461;-76
2023/05/25 04:41:37;;;;;;;12.10;7.63;;;12.70;99.90;;;;;;5048424;28;20508;-76
2023/05/25 04:44:05;;;;;;;11.40;8.20;;;12.70;99.90;;;;;;5042308;28;20902;-76
2023/05/25 04:46:35;;;;;;;11.97;7.47;;;12.70;99.90;;;;;;5043211;28;20461;-78
2023/05/25 04:49:04;;;;;;;10.90;7.70;;;12.80;99.90;;;;;;5048242;28;20490;-76
2023/05/25 04:51:31;;;;;;;16.23;8.30;;;12.80;99.90;;;;;;5045862;28;20456;-75
2023/05/25 04:53:58;;;;;;;8.33;6.67;;;12.80;99.90;;;;;;5046706;28;20468;-77
2023/05/25 04:56:25;;;;;;;10.87;8.33;;;12.80;99.90;;;;;;5043961;28;20441;-78
2023/05/25 04:58:53;;;;;;;8.93;8.13;;;12.80;99.90;;;;;;5038442;28;20540;-77
2023/05/25 05:01:22;;;;;;;9.27;8.43;;;12.90;99.90;;;;;;5040735;28;20991;-76
2023/05/25 05:03:49;;;;;;;16.40;9.40;;;12.90;99.90;;;;;;5042264;28;20456;-79
2023/05/25 05:06:16;;;;;;;12.63;8.97;;;12.80;99.90;;;;;;5039378;28;20449;-75
2023/05/25 05:08:43;;;;;;;9.43;7.03;;;13.00;99.90;;;;;;5028995;28;20527;-86
2023/05/25 05:11:10;;;;;;;11.53;9.20;;;13.10;99.90;;;;;;5036845;28;20473;-77
2023/05/25 05:13:37;;;;;;;14.73;9.60;;;13.10;99.90;;;;;;5036407;28;20543;-77
2023/05/25 05:16:05;;;;;;;17.87;9.60;;;13.10;99.90;;;;;;5029480;28;20945;-76
2023/05/25 05:18:34;;;;;;;13.63;9.23;;;13.10;99.90;;;;;;5035579;28;20472;-78
2023/05/25 05:21:01;;;;;;;9.93;9.03;;;13.10;99.90;;;;;;5042099;28;20499;-77
2023/05/25 05:23:28;;;;;;;10.07;6.90;;;13.10;99.90;;;;;;5042677;28;20445;-76
2023/05/25 05:25:55;;;;;;;11.70;8.50;;;13.20;99.90;;;;;;5039203;28;20539;-77
2023/05/25 05:28:26;;;;;;;12.63;8.57;;;13.20;99.90;;;;;;5044352;28;20465;-75
2023/05/25 05:30:53;;;;;;;10.10;8.23;;;13.10;99.90;;;;;;5041143;28;20486;-76
2023/05/25 05:33:20;;;;;;;10.03;8.63;;;13.10;99.90;;;;;;5036684;28;20955;-76
2023/05/25 05:35:48;;;;;;;12.20;7.97;;;13.10;99.90;;;;;;5031813;28;20458;-75
2023/05/25 05:38:15;;;;;;;9.13;7.70;;;13.20;99.90;;;;;;5046080;28;20515;-77
2023/05/25 05:40:42;;;;;;;11.13;8.27;;;13.30;99.90;;;;;;5050217;28;20527;-76
2023/05/25 05:43:11;;;;;;;9.97;8.20;;;13.30;99.90;;;;;;5045019;28;20962;-77
2023/05/25 05:45:37;;;;;;;10.93;8.80;;;13.50;99.90;;;;;;5041179;28;20539;-78
2023/05/25 05:48:08;;;;;;;10.53;8.63;;;13.60;99.90;;;;;;5045227;28;20566;-81
2023/05/25 05:50:35;;;;;;;9.13;8.33;;;13.80;99.90;;;;;;5042912;28;21353;-77
2023/05/25 05:53:03;;;;;;;11.13;9.07;;;13.80;99.90;;;;;;5049646;28;20450;-77
2023/05/25 05:55:30;;;;;;;11.50;9.43;;;13.90;99.90;;;;;;5044587;28;20547;-77
2023/05/25 05:57:57;;;;;;;8.83;7.87;;;14.00;99.90;;;;;;5032964;28;20445;-77
2023/05/25 06:00:25;;;;;;;12.20;7.10;;;14.10;99.90;;;;;;5042947;28;20458;-78
2023/05/25 06:02:53;;;;;;;10.47;9.37;;;14.00;99.90;;;;;;5036018;28;20532;-77
2023/05/25 06:05:20;;;;;;;13.87;8.93;;;14.00;99.90;;;;;;5040865;28;20449;-77
2023/05/25 06:07:47;;;;;;;9.93;8.83;;;14.00;99.90;;;;;;5035885;28;20438;-78
2023/05/25 06:10:15;;;;;;;13.00;7.63;;;13.90;99.90;;;;;;5039243;28;20517;-80
2023/05/25 06:12:42;;;;;;;14.23;8.50;;;13.90;99.90;;;;;;5038308;28;21120;-77
2023/05/25 06:15:10;;;;;;;10.40;9.00;;;13.90;99.90;;;;;;5038621;28;20863;-85
2023/05/25 06:17:37;;;;;;;11.10;8.50;;;13.80;99.90;;;;;;5027456;28;20906;-80
2023/05/25 06:20:05;;;;;;;18.37;8.60;;;14.00;99.90;;;;;;5040437;28;20497;-77
2023/05/25 06:22:32;;;;;;;10.10;8.30;;;14.10;99.90;;;;;;5037623;28;20529;-78
2023/05/25 06:25:00;;;;;;;11.33;9.90;;;14.20;99.90;;;;;;5039782;28;20461;-77
2023/05/25 06:27:28;;;;;;;11.80;8.40;;;14.30;99.90;;;;;;5045130;28;20508;-79
2023/05/25 06:29:55;;;;;;;10.20;8.00;;;14.20;99.90;;;;;;5045904;28;21026;-82
2023/05/25 06:32:22;;;;;;;12.83;8.70;;;14.30;99.90;;;;;;5035745;28;20450;-78
2023/05/25 06:34:49;;;;;;;22.93;7.23;;;14.70;99.90;;;;;;5042666;28;20533;-77
2023/05/25 06:37:16;;;;;;;12.50;9.33;;;14.80;99.90;;;;;;5040983;28;20484;-78
2023/05/25 06:39:43;;;;;;;10.73;7.80;;;15.20;99.90;;;;;;5046764;28;20450;-77
2023/05/25 06:42:11;;;;;;;13.03;9.13;;;15.30;99.90;;;;;;5042228;28;21205;-78
2023/05/25 06:44:39;;;;;;;7.93;7.03;;;15.20;99.90;;;;;;5045810;28;20487;-80
2023/05/25 06:47:06;;;;;;;8.57;7.87;;;15.20;99.90;;;;;;5046387;28;21158;-78
2023/05/25 06:49:33;;;;;;;8.90;8.00;;;15.20;99.90;;;;;;5042047;28;20485;-78
2023/05/25 06:52:00;;;;;;;8.43;7.60;;;15.40;99.90;;;;;;5042561;28;20445;-77
2023/05/25 06:54:28;;;;;;;8.93;8.03;;;15.30;99.90;;;;;;5039697;28;20461;-80
2023/05/25 06:56:54;;;;;;;13.60;8.87;;;15.50;99.90;;;;;;5045146;28;20465;-80
2023/05/25 06:59:22;;;;;;;10.33;7.67;;;15.80;99.90;;;;;;5038333;28;21034;-77
2023/05/25 07:01:50;;;;;;;12.37;8.37;;;16.10;99.90;;;;;;5043971;28;20484;-77
2023/05/25 07:04:17;;;;;;;13.37;9.80;;;15.50;99.90;;;;;;5030154;28;20815;-77
2023/05/25 07:06:45;;;;;;;11.83;8.50;;;15.40;99.90;;;;;;5031306;28;20442;-77
2023/05/25 07:09:12;;;;;;;10.20;8.40;;;15.40;99.90;;;;;;5036099;28;20944;-83
2023/05/25 07:11:39;;;;;;;8.80;7.30;;;15.50;99.90;;;;;;5035815;28;20944;-80
2023/05/25 07:14:06;;;;;;;8.50;7.70;;;15.60;99.90;;;;;;5040433;28;20463;-77
2023/05/25 07:16:33;;;;;;;10.37;8.63;;;15.70;99.90;;;;;;5044816;28;20584;-80
2023/05/25 07:19:01;;;;;;;8.10;7.40;;;15.40;99.90;;;;;;5040467;28;20519;-81
2023/05/25 07:21:32;;;;;;;10.23;8.30;;;15.30;99.90;;;;;;5037377;28;20441;-81
2023/05/25 07:23:59;;;;;;;10.20;7.63;;;15.50;99.90;;;;;;5043438;28;20539;-78
2023/05/25 07:26:26;;;;;;;13.63;8.80;;;15.80;99.90;;;;;;5039516;28;20485;-81
2023/05/25 07:28:54;;;;;;;9.40;8.60;;;15.70;99.90;;;;;;5038084;28;20457;-77
2023/05/25 07:31:21;;;;;;;9.60;8.70;;;15.50;99.90;;;;;;5028810;28;20493;-79
2023/05/25 07:33:48;;;;;;;12.10;8.63;;;15.60;99.90;;;;;;5037769;28;20450;-79
2023/05/25 07:36:16;;;;;;;11.70;9.77;;;15.80;99.90;;;;;;5040907;28;20465;-78
2023/05/25 07:38:43;;;;;;;12.20;8.27;;;16.10;99.90;;;;;;5032564;28;20492;-78
2023/05/25 07:41:12;;;;;;;9.23;8.30;;;16.30;99.90;;;;;;5036149;28;20449;-77
2023/05/25 07:43:39;;;;;;;9.43;7.83;;;15.90;99.90;;;;;;5040225;28;20923;-77
2023/05/25 07:46:06;;;;;;;8.27;7.50;;;15.90;99.90;;;;;;5032352;28;21273;-76
2023/05/25 07:48:33;;;;;;;10.60;8.60;;;15.50;99.90;;;;;;5037092;28;20449;-77
2023/05/25 07:51:00;;;;;;;9.77;8.83;;;15.30;99.90;;;;;;5040202;28;20536;-76
2023/05/25 07:53:28;;;;;;;8.40;7.60;;;15.50;99.90;;;;;;5040831;28;20450;-76
2023/05/25 07:55:55;;;;;;;9.30;8.40;;;15.50;99.90;;;;;;5036973;28;20819;-77
2023/05/25 07:58:22;;;;;;;9.90;7.63;;;15.80;99.90;;;;;;5040203;28;20495;-79
2023/05/25 08:00:50;;;;;;;7.83;6.80;;;15.70;99.90;;;;;;5037551;28;22062;-76
2023/05/25 08:03:17;;;;;;;9.87;8.13;;;15.40;99.90;;;;;;5034537;28;20541;-76
2023/05/25 08:05:44;;;;;;;10.33;8.10;;;15.70;99.90;;;;;;5036949;28;20465;-81
2023/05/25 08:08:13;;;;;;;10.80;8.90;;;16.10;99.90;;;;;;5033871;28;20811;-77
2023/05/25 08:10:41;;;;;;;8.20;7.40;;;16.40;99.90;;;;;;5045635;28;20492;-77
2023/05/25 08:13:08;;;;;;;14.90;8.53;;;16.60;99.90;;;;;;5046240;28;20948;-79
2023/05/25 08:15:35;;;;;;;12.20;6.80;;;16.60;99.90;;;;;;5045740;28;20453;-77
2023/05/25 08:18:03;;;;;;;9.70;7.93;;;16.60;99.90;;;;;;5042108;28;20462;-78
2023/05/25 08:20:31;;;;;;;9.30;7.27;;;16.60;99.90;;;;;;5042921;28;20549;-77
2023/05/25 08:22:58;;;;;;;8.50;7.60;;;16.60;99.90;;;;;;5039454;28;20468;-77
2023/05/25 08:25:25;;;;;;;8.23;7.17;;;16.80;99.90;;;;;;5045063;28;20544;-80
2023/05/25 08:27:53;;;;;;;11.57;8.20;;;16.70;99.90;;;;;;5044994;28;20472;-81
2023/05/25 08:30:20;;;;;;;9.33;7.63;;;16.80;99.90;;;;;;5029430;28;20482;-78
2023/05/25 08:32:47;;;;;;;9.47;6.73;;;16.70;99.90;;;;;;5037907;28;20466;-79
2023/05/25 08:35:16;;;;;;;13.37;7.33;;;16.60;99.90;;;;;;5037003;28;20441;-77
2023/05/25 08:37:43;;;;;;;8.87;7.97;;;16.80;99.90;;;;;;5038326;28;20457;-79
2023/05/25 08:40:14;;;;;;;13.50;7.07;;;16.90;99.90;;;;;;5038421;28;20488;-77
2023/05/25 08:42:42;;;;;;;9.37;6.83;;;17.20;99.90;;;;;;5037766;28;20524;-77
2023/05/25 08:45:11;;;;;;;8.27;7.47;;;17.40;99.90;;;;;;5035765;28;20550;-77
2023/05/25 08:47:41;;;;;;;8.80;7.10;;;17.70;99.90;;;;;;5030807;28;20442;-77
2023/05/25 08:50:10;;;;;;;8.20;7.40;;;17.60;99.90;;;;;;5030390;28;20480;-76
2023/05/25 08:52:39;;;;;;;7.43;6.73;;;17.70;99.90;;;;;;5031763;28;20442;-76
2023/05/25 08:55:09;;;;;;;9.47;7.00;;;17.80;99.90;;;;;;5037202;28;21308;-76
2023/05/25 08:57:53;;;;;;;8.73;6.43;;;18.00;99.90;;;;;;5032539;28;20479;-79
2023/05/25 09:00:28;;;;;;;9.27;7.40;;;18.00;99.90;;;;;;5044960;28;20593;-77
2023/05/25 09:03:05;;;;;;;7.33;5.93;;;18.00;99.90;;;;;;5034238;28;20447;-76
2023/05/25 09:05:33;;;;;;;9.10;6.27;;;18.10;99.90;;;;;;5041717;28;20460;-77
2023/05/25 09:08:00;;;;;;;7.00;6.37;;;18.00;99.90;;;;;;5043527;28;20832;-77
2023/05/25 09:10:28;;;;;;;6.57;5.90;;;18.20;99.90;;;;;;5029902;28;20477;-78
2023/05/25 09:12:56;;;;;;;9.47;6.33;;;18.00;99.90;;;;;;5044677;28;20513;-76
2023/05/25 09:15:24;;;;;;;7.43;5.53;;;18.40;99.90;;;;;;5038877;28;20450;-77
2023/05/25 09:17:51;;;;;;;9.13;6.80;;;18.60;99.90;;;;;;5046231;28;20898;-77
2023/05/25 09:20:19;;;;;;;12.83;6.77;;;18.90;99.90;;;;;;5039943;28;20464;-78
2023/05/25 09:22:48;;;;;;;6.27;5.67;;;18.90;99.90;;;;;;5036705;28;20958;-80
2023/05/25 09:25:19;;;;;;;7.07;6.07;;;18.50;99.90;;;;;;5040221;28;20461;-77
2023/05/25 09:27:46;;;;;;;4.90;4.40;;;18.50;99.90;;;;;;5043406;28;20556;-76
2023/05/25 09:30:13;;;;;;;5.60;4.97;;;18.80;99.90;;;;;;5040934;28;20501;-77
2023/05/25 09:32:41;;;;;;;6.13;5.00;;;18.80;99.90;;;;;;5040113;28;20469;-77
2023/05/25 09:35:09;;;;;;;6.50;5.67;;;19.20;99.90;;;;;;5042010;28;20492;-77
2023/05/25 09:37:37;;;;;;;6.07;4.47;;;19.00;99.90;;;;;;5043899;28;20441;-79
2023/05/25 09:40:05;;;;;;;6.13;5.53;;;19.20;99.90;;;;;;5045998;28;20464;-79
2023/05/25 09:42:33;;;;;;;5.10;4.60;;;19.30;99.90;;;;;;5043951;28;20448;-78
2023/05/25 09:45:00;;;;;;;5.37;4.27;;;19.50;99.90;;;;;;5042798;28;20531;-79
2023/05/25 09:47:27;;;;;;;6.43;4.60;;;19.70;99.90;;;;;;5042864;28;20937;-80
2023/05/25 09:49:56;;;;;;;5.20;4.70;;;19.40;99.20;;;;;;5044360;28;20483;-76
2023/05/25 09:52:24;;;;;;;4.87;4.47;;;19.00;99.60;;;;;;5045199;28;20441;-79
2023/05/25 09:54:52;;;;;;;7.60;4.67;;;19.20;99.90;;;;;;5045811;28;20445;-75
2023/05/25 09:57:20;;;;;;;5.63;4.30;;;19.30;99.90;;;;;;5045211;28;20461;-75
2023/05/25 09:59:47;;;;;;;5.90;4.47;;;19.30;99.90;;;;;;5039660;28;21165;-76
2023/05/25 10:02:14;;;;;;;7.33;4.10;;;19.40;99.90;;;;;;5040195;28;20503;-77
2023/05/25 10:04:41;;;;;;;6.93;3.90;;;19.20;98.80;;;;;;5033610;28;20776;-82
2023/05/25 10:07:10;;;;;;;5.90;4.13;;;19.20;99.10;;;;;;5040749;28;20499;-77
2023/05/25 10:09:40;;;;;;;4.70;4.23;;;19.60;99.90;;;;;;5039849;28;20542;-81
2023/05/25 10:12:08;;;;;;;5.10;4.67;;;20.00;99.90;;;;;;5037396;28;20481;-76
2023/05/25 10:14:37;;;;;;;6.53;4.30;;;20.40;99.90;;;;;;5042959;28;20452;-77
2023/05/25 10:17:06;;;;;;;3.57;3.23;;;20.30;98.70;;;;;;5028196;28;20496;-79
2023/05/25 10:19:40;;;;;;;4.83;3.93;;;20.60;99.70;;;;;;5039658;28;20464;-80
2023/05/25 10:22:18;;;;;;;4.00;3.70;;;20.60;98.50;;;;;;5040338;28;20480;-77
2023/05/25 10:24:53;;;;;;;6.50;4.07;;;20.20;97.10;;;;;;5042822;28;20936;-76
2023/05/25 10:27:23;;;;;;;5.70;4.30;;;20.70;97.10;;;;;;5032680;28;20500;-77
2023/05/25 10:29:52;;;;;;;4.13;3.37;;;20.70;97.50;;;;;;5040074;28;20449;-79
2023/05/25 10:32:19;;;;;;;4.67;3.47;;;20.80;97.50;;;;;;5038360;28;20481;-78
2023/05/25 10:34:47;;;;;;;3.80;3.47;;;20.90;96.00;;;;;;5042016;28;21146;-77
2023/05/25 10:37:18;;;;;;;4.10;3.70;;;20.90;96.50;;;;;;5029606;28;20500;-78
2023/05/25 10:39:45;;;;;;;5.97;3.77;;;20.90;93.50;;;;;;5036930;28;20839;-77
2023/05/25 10:42:13;;;;;;;8.20;5.30;;;20.90;95.40;;;;;;5042189;28;20499;-80
2023/05/25 10:44:42;;;;;;;3.60;3.40;;;20.90;95.10;;;;;;5041144;28;20577;-77
2023/05/25 10:47:09;;;;;;;3.87;3.30;;;20.60;99.70;;;;;;5035753;28;20851;-81
2023/05/25 10:49:53;;;;;;;4.30;3.07;;;20.70;94.60;;;;;;5037424;28;20449;-77
2023/05/25 10:52:22;;;;;;;4.50;3.30;;;20.40;95.00;;;;;;5041306;28;20482;-81
2023/05/25 10:54:49;;;;;;;5.27;3.57;;;20.50;92.20;;;;;;5038830;28;20524;-79
2023/05/25 10:57:20;;;;;;;7.07;3.67;;;20.70;94.50;;;;;;5029929;28;20466;-81
2023/05/25 10:59:54;;;;;;;4.73;3.17;;;20.80;95.00;;;;;;5041930;28;20449;-77
2023/05/25 11:02:23;;;;;;;5.00;2.40;;;20.60;93.80;;;;;;5036318;28;20463;-77
2023/05/25 11:04:50;;;;;;;3.10;2.30;;;20.80;94.10;;;;;;5041732;28;20458;-81
2023/05/25 11:07:18;;;;;;;3.83;2.83;;;20.90;93.00;;;;;;5029399;28;20544;-77
2023/05/25 11:09:58;;;;;;;3.40;3.10;;;20.80;93.10;;;;;;5039737;28;20561;-78
2023/05/25 11:12:26;;;;;;;6.77;2.67;;;21.10;93.70;;;;;;5046067;28;20538;-77
2023/05/25 11:15:13;;;;;;;5.53;2.93;;;21.10;92.10;;;;;;5045568;28;20485;-78
2023/05/25 11:17:59;;;;;;;5.17;2.60;;;21.30;93.60;;;;;;5047007;28;20491;-80
2023/05/25 11:20:28;;;;;;;3.30;2.63;;;21.00;91.10;;;;;;5043025;28;20539;-77
2023/05/25 11:22:57;;;;;;;3.23;2.60;;;21.30;93.10;;;;;;5041000;28;20453;-81
2023/05/25 11:25:39;;;;;;;4.00;3.20;;;21.30;92.20;;;;;;5041139;28;20994;-81
2023/05/25 11:28:07;;;;;;;3.47;2.23;;;21.50;90.00;;;;;;5044820;28;20487;-80
2023/05/25 11:30:35;;;;;;;4.03;2.53;;;21.50;91.00;;;;;;5037698;28;20443;-77
2023/05/25 11:33:03;;;;;;;4.07;2.47;;;22.00;90.10;;;;;;5042859;28;20840;-75
2023/05/25 11:35:35;;;;;;;3.67;2.30;;;22.20;90.20;;;;;;5037372;28;20480;-79
2023/05/25 11:38:06;;;;;;;4.27;2.20;;;22.00;88.50;;;;;;5032037;28;20447;-76
2023/05/25 11:40:33;;;;;;;4.40;3.17;;;21.80;88.50;;;;;;5038390;28;20450;-80
2023/05/25 11:43:03;;;;;;;3.90;2.70;;;22.20;92.50;;;;;;5043811;28;21009;-76
2023/05/25 11:45:32;;;;;;;3.57;2.47;;;21.90;88.10;;;;;;5046452;28;20560;-78
2023/05/25 11:47:59;;;;;;;4.00;2.57;;;21.70;91.90;;;;;;5032555;28;20648;-79
2023/05/25 11:50:27;;;;;;;3.67;3.37;;;21.70;91.50;;;;;;5042299;28;20999;-77
2023/05/25 11:52:54;;;;;;;4.20;3.17;;;21.80;92.10;;;;;;5037068;28;21015;-78
2023/05/25 11:55:21;;;;;;;3.03;2.67;;;21.70;90.00;;;;;;5031752;28;20962;-79
2023/05/25 11:57:56;;;;;;;3.53;2.40;;;22.20;88.80;;;;;;5029754;28;22197;-78
2023/05/25 12:00:28;;;;;;;5.73;2.53;;;22.40;91.80;;;;;;5037415;28;20461;-76
2023/05/25 12:02:56;;;;;;;4.60;2.70;;;22.00;90.80;;;;;;5041224;28;20527;-76
2023/05/25 12:05:23;;;;;;;4.10;1.97;;;22.00;86.60;;;;;;5032388;28;20454;-79
2023/05/25 12:07:50;;;;;;;5.40;3.00;;;22.00;88.40;;;;;;5036468;28;20462;-78
2023/05/25 12:10:18;;;;;;;5.63;3.10;;;22.00;90.00;;;;;;5035770;28;20522;-76
2023/05/25 12:12:45;;;;;;;5.40;3.47;;;22.40;87.10;;;;;;5039364;28;20512;-75
2023/05/25 12:15:15;;;;;;;3.53;2.07;;;22.30;85.80;;;;;;5045048;28;20449;-76
2023/05/25 12:17:44;;;;;;;2.80;2.50;;;22.20;88.30;;;;;;5035975;28;20993;-77
2023/05/25 12:20:14;;;;;;;2.40;2.20;;;22.30;89.00;;;;;;5039350;28;21192;-76
2023/05/25 12:22:42;;;;;;;3.47;3.17;;;22.20;85.20;;;;;;5041369;28;20518;-80
2023/05/25 12:25:10;;;;;;;3.73;3.43;;;22.30;85.70;;;;;;5041281;28;20451;-77
2023/05/25 12:27:38;;;;;;;2.83;2.63;;;22.20;91.50;;;;;;5039374;28;20861;-75
2023/05/25 12:30:07;;;;;;;6.13;2.70;;;22.30;87.30;;;;;;5034753;28;20442;-76
2023/05/25 12:32:35;;;;;;;2.30;2.10;;;22.50;92.00;;;;;;5034963;28;20485;-76
2023/05/25 12:35:05;;;;;;;5.27;3.47;;;23.00;88.80;;;;;;5035379;28;20485;-76
2023/05/25 12:37:33;;;;;;;3.70;3.13;;;23.20;90.20;;;;;;5030881;28;20454;-77
2023/05/25 12:39:59;;;;;;;3.50;3.10;;;23.00;87.70;;;;;;5042087;28;20459;-77
2023/05/25 12:42:28;;;;;;;3.17;3.07;;;22.50;85.40;;;;;;5041313;28;20473;-79
2023/05/25 12:44:59;;;;;;;3.17;2.87;;;22.70;89.10;;;;;;5037710;28;20570;-78